sensor_id;sensor_type;location;lat;lon;timestamp;P1;durP1;ratioP1;P2;durP2;ratioP2
22894;SDS011;11614;52.494;6.976;2023-05-23T00:01:58;12.77;;;7.70;;
22894;SDS011;11614;52.494;6.976;2023-05-23T00:04:24;10.30;;;6.17;;
22894;SDS011;11614;52.494;6.976;2023-05-23T00:06:50;14.63;;;9.53;;
22894;SDS011;11614;52.494;6.976;2023-05-23T00:09:17;14.93;;;9.80;;
22894;SDS011;11614;52.494;6.976;2023-05-23T00:11:43;12.50;;;7.73;;
22894;SDS011;11614;52.494;6.976;2023-05-23T00:14:13;15.07;;;10.83;;
22894;SDS011;11614;52.494;6.976;2023-05-23T00:16:39;15.77;;;10.73;;
22894;SDS011;11614;52.494;6.976;2023-05-23T00:19:06;20.97;;;12.50;;
22894;SDS011;11614;52.494;6.976;2023-05-23T00:21:33;21.97;;;12.10;;
22894;SDS011;11614;52.494;6.976;2023-05-23T00:23:58;20.70;;;11.93;;
22894;SDS011;11614;52.494;6.976;2023-05-23T00:26:26;17.87;;;11.20;;
22894;SDS011;11614;52.494;6.976;2023-05-23T00:28:54;19.90;;;12.20;;
22894;SDS011;11614;52.494;6.976;2023-05-23T00:31:20;22.23;;;13.30;;
22894;SDS011;11614;52.494;6.976;2023-05-23T00:33:46;18.93;;;10.27;;
22894;SDS011;11614;52.494;6.976;2023-05-23T00:36:11;23.43;;;11.87;;
22894;SDS011;11614;52.494;6.976;2023-05-23T00:38:37;20.07;;;10.63;;
22894;SDS011;11614;52.494;6.976;2023-05-23T00:41:03;22.87;;;12.73;;
22894;SDS011;11614;52.494;6.976;2023-05-23T00:43:30;24.23;;;12.00;;
22894;SDS011;11614;52.494;6.976;2023-05-23T00:45:56;21.03;;;11.20;;
22894;SDS011;11614;52.494;6.976;2023-05-23T00:48:23;20.67;;;9.77;;
22894;SDS011;11614;52.494;6.976;2023-05-23T00:50:50;23.73;;;13.20;;
22894;SDS011;11614;52.494;6.976;2023-05-23T00:53:16;24.70;;;13.33;;
22894;SDS011;11614;52.494;6.976;2023-05-23T00:55:43;25.70;;;14.30;;
22894;SDS011;11614;52.494;6.976;2023-05-23T00:58:09;17.83;;;8.43;;
22894;SDS011;11614;52.494;6.976;2023-05-23T01:00:35;22.30;;;12.63;;
22894;SDS011;11614;52.494;6.976;2023-05-23T01:03:02;20.83;;;11.73;;
22894;SDS011;11614;52.494;6.976;2023-05-23T01:05:29;23.23;;;11.83;;
22894;SDS011;11614;52.494;6.976;2023-05-23T01:07:55;18.97;;;10.03;;
22894;SDS011;11614;52.494;6.976;2023-05-23T01:10:29;13.20;;;8.60;;
22894;SDS011;11614;52.494;6.976;2023-05-23T01:13:05;23.23;;;13.73;;
22894;SDS011;11614;52.494;6.976;2023-05-23T01:16:01;17.77;;;9.43;;
22894;SDS011;11614;52.494;6.976;2023-05-23T01:18:59;18.20;;;10.30;;
22894;SDS011;11614;52.494;6.976;2023-05-23T01:21:47;22.30;;;12.87;;
22894;SDS011;11614;52.494;6.976;2023-05-23T01:27:15;19.63;;;10.40;;
22894;SDS011;11614;52.494;6.976;2023-05-23T01:30:02;16.10;;;8.73;;
22894;SDS011;11614;52.494;6.976;2023-05-23T01:32:31;16.93;;;10.37;;
22894;SDS011;11614;52.494;6.976;2023-05-23T01:34:57;20.00;;;11.43;;
22894;SDS011;11614;52.494;6.976;2023-05-23T01:37:24;12.47;;;7.47;;
22894;SDS011;11614;52.494;6.976;2023-05-23T01:39:50;12.47;;;8.73;;
22894;SDS011;11614;52.494;6.976;2023-05-23T01:42:16;13.03;;;8.30;;
22894;SDS011;11614;52.494;6.976;2023-05-23T01:44:43;12.47;;;7.93;;
22894;SDS011;11614;52.494;6.976;2023-05-23T01:47:09;11.40;;;6.67;;
22894;SDS011;11614;52.494;6.976;2023-05-23T01:49:36;15.67;;;10.67;;
22894;SDS011;11614;52.494;6.976;2023-05-23T01:52:04;15.80;;;9.47;;
22894;SDS011;11614;52.494;6.976;2023-05-23T01:54:33;8.40;;;4.90;;
22894;SDS011;11614;52.494;6.976;2023-05-23T01:56:59;12.83;;;7.60;;
22894;SDS011;11614;52.494;6.976;2023-05-23T01:59:25;11.80;;;7.40;;
22894;SDS011;11614;52.494;6.976;2023-05-23T02:01:51;13.37;;;9.10;;
22894;SDS011;11614;52.494;6.976;2023-05-23T02:04:17;11.37;;;6.23;;
22894;SDS011;11614;52.494;6.976;2023-05-23T02:06:43;12.53;;;8.30;;
22894;SDS011;11614;52.494;6.976;2023-05-23T02:09:10;13.60;;;7.67;;
22894;SDS011;11614;52.494;6.976;2023-05-23T02:11:36;12.37;;;6.80;;
22894;SDS011;11614;52.494;6.976;2023-05-23T02:14:02;12.97;;;8.57;;
22894;SDS011;11614;52.494;6.976;2023-05-23T02:16:28;11.40;;;6.87;;
22894;SDS011;11614;52.494;6.976;2023-05-23T02:18:53;13.93;;;7.43;;
22894;SDS011;11614;52.494;6.976;2023-05-23T02:21:23;12.27;;;8.93;;
22894;SDS011;11614;52.494;6.976;2023-05-23T02:23:48;15.80;;;10.40;;
22894;SDS011;11614;52.494;6.976;2023-05-23T02:26:14;13.87;;;7.93;;
22894;SDS011;11614;52.494;6.976;2023-05-23T02:28:40;15.73;;;10.27;;
22894;SDS011;11614;52.494;6.976;2023-05-23T02:31:06;11.97;;;6.77;;
22894;SDS011;11614;52.494;6.976;2023-05-23T02:33:32;17.80;;;11.93;;
22894;SDS011;11614;52.494;6.976;2023-05-23T02:35:58;19.17;;;11.80;;
22894;SDS011;11614;52.494;6.976;2023-05-23T02:38:24;20.17;;;13.50;;
22894;SDS011;11614;52.494;6.976;2023-05-23T02:40:51;19.60;;;12.67;;
22894;SDS011;11614;52.494;6.976;2023-05-23T02:43:18;12.07;;;8.30;;
22894;SDS011;11614;52.494;6.976;2023-05-23T02:45:43;15.67;;;11.10;;
22894;SDS011;11614;52.494;6.976;2023-05-23T02:48:09;17.77;;;12.93;;
22894;SDS011;11614;52.494;6.976;2023-05-23T02:50:36;14.60;;;9.03;;
22894;SDS011;11614;52.494;6.976;2023-05-23T02:53:02;16.17;;;12.03;;
22894;SDS011;11614;52.494;6.976;2023-05-23T02:55:27;19.27;;;12.93;;
22894;SDS011;11614;52.494;6.976;2023-05-23T02:57:53;20.27;;;12.97;;
22894;SDS011;11614;52.494;6.976;2023-05-23T03:00:20;23.43;;;14.67;;
22894;SDS011;11614;52.494;6.976;2023-05-23T03:02:46;21.70;;;13.77;;
22894;SDS011;11614;52.494;6.976;2023-05-23T03:05:12;21.17;;;13.20;;
22894;SDS011;11614;52.494;6.976;2023-05-23T03:07:38;18.57;;;9.77;;
22894;SDS011;11614;52.494;6.976;2023-05-23T03:10:03;18.00;;;13.10;;
22894;SDS011;11614;52.494;6.976;2023-05-23T03:12:29;16.50;;;8.20;;
22894;SDS011;11614;52.494;6.976;2023-05-23T03:14:55;12.00;;;8.30;;
22894;SDS011;11614;52.494;6.976;2023-05-23T03:17:23;23.43;;;11.37;;
22894;SDS011;11614;52.494;6.976;2023-05-23T03:19:49;18.53;;;11.87;;
22894;SDS011;11614;52.494;6.976;2023-05-23T03:22:15;14.50;;;8.87;;
22894;SDS011;11614;52.494;6.976;2023-05-23T03:24:41;14.73;;;8.97;;
22894;SDS011;11614;52.494;6.976;2023-05-23T03:27:07;20.10;;;11.17;;
22894;SDS011;11614;52.494;6.976;2023-05-23T03:29:33;20.97;;;11.07;;
22894;SDS011;11614;52.494;6.976;2023-05-23T03:31:59;26.00;;;12.40;;
22894;SDS011;11614;52.494;6.976;2023-05-23T03:34:25;17.60;;;9.77;;
22894;SDS011;11614;52.494;6.976;2023-05-23T03:36:51;23.07;;;12.23;;
22894;SDS011;11614;52.494;6.976;2023-05-23T03:39:17;22.93;;;12.23;;
22894;SDS011;11614;52.494;6.976;2023-05-23T03:41:43;14.77;;;6.83;;
22894;SDS011;11614;52.494;6.976;2023-05-23T03:44:08;18.73;;;10.10;;
22894;SDS011;11614;52.494;6.976;2023-05-23T03:46:34;21.33;;;13.13;;
22894;SDS011;11614;52.494;6.976;2023-05-23T03:49:00;15.47;;;8.30;;
22894;SDS011;11614;52.494;6.976;2023-05-23T03:51:26;15.07;;;6.73;;
22894;SDS011;11614;52.494;6.976;2023-05-23T03:53:52;11.83;;;6.57;;
22894;SDS011;11614;52.494;6.976;2023-05-23T03:56:18;14.27;;;7.33;;
22894;SDS011;11614;52.494;6.976;2023-05-23T03:58:45;15.73;;;8.27;;
22894;SDS011;11614;52.494;6.976;2023-05-23T04:01:11;9.77;;;6.37;;
22894;SDS011;11614;52.494;6.976;2023-05-23T04:03:37;12.13;;;6.77;;
22894;SDS011;11614;52.494;6.976;2023-05-23T04:06:03;12.30;;;6.53;;
22894;SDS011;11614;52.494;6.976;2023-05-23T04:08:29;11.70;;;5.97;;
22894;SDS011;11614;52.494;6.976;2023-05-23T04:10:58;8.60;;;5.53;;
22894;SDS011;11614;52.494;6.976;2023-05-23T04:13:25;12.43;;;7.20;;
22894;SDS011;11614;52.494;6.976;2023-05-23T04:15:51;9.80;;;5.60;;
22894;SDS011;11614;52.494;6.976;2023-05-23T04:18:17;12.13;;;4.97;;
22894;SDS011;11614;52.494;6.976;2023-05-23T04:20:43;13.20;;;6.43;;
22894;SDS011;11614;52.494;6.976;2023-05-23T04:23:09;12.17;;;6.57;;
22894;SDS011;11614;52.494;6.976;2023-05-23T04:25:35;20.60;;;8.90;;
22894;SDS011;11614;52.494;6.976;2023-05-23T04:28:01;19.20;;;8.97;;
22894;SDS011;11614;52.494;6.976;2023-05-23T04:30:26;12.63;;;6.20;;
22894;SDS011;11614;52.494;6.976;2023-05-23T04:32:54;17.07;;;8.07;;
22894;SDS011;11614;52.494;6.976;2023-05-23T04:35:22;11.67;;;5.30;;
22894;SDS011;11614;52.494;6.976;2023-05-23T04:37:47;11.60;;;6.50;;
22894;SDS011;11614;52.494;6.976;2023-05-23T04:40:14;14.57;;;6.60;;
22894;SDS011;11614;52.494;6.976;2023-05-23T04:42:40;12.40;;;6.43;;
22894;SDS011;11614;52.494;6.976;2023-05-23T04:45:08;14.40;;;5.30;;
22894;SDS011;11614;52.494;6.976;2023-05-23T04:47:35;15.33;;;6.67;;
22894;SDS011;11614;52.494;6.976;2023-05-23T04:50:01;16.10;;;7.50;;
22894;SDS011;11614;52.494;6.976;2023-05-23T04:52:28;15.03;;;7.43;;
22894;SDS011;11614;52.494;6.976;2023-05-23T04:54:57;8.80;;;4.47;;
22894;SDS011;11614;52.494;6.976;2023-05-23T04:57:24;12.37;;;6.20;;
22894;SDS011;11614;52.494;6.976;2023-05-23T04:59:50;15.47;;;7.83;;
22894;SDS011;11614;52.494;6.976;2023-05-23T05:02:16;16.87;;;7.43;;
22894;SDS011;11614;52.494;6.976;2023-05-23T05:04:42;14.70;;;8.00;;
22894;SDS011;11614;52.494;6.976;2023-05-23T05:07:08;13.47;;;5.73;;
22894;SDS011;11614;52.494;6.976;2023-05-23T05:09:34;14.03;;;7.10;;
22894;SDS011;11614;52.494;6.976;2023-05-23T05:12:00;15.93;;;7.77;;
22894;SDS011;11614;52.494;6.976;2023-05-23T05:14:26;9.43;;;5.10;;
22894;SDS011;11614;52.494;6.976;2023-05-23T05:16:52;12.70;;;7.57;;
22894;SDS011;11614;52.494;6.976;2023-05-23T05:19:22;14.13;;;6.57;;
22894;SDS011;11614;52.494;6.976;2023-05-23T05:21:48;10.27;;;5.20;;
22894;SDS011;11614;52.494;6.976;2023-05-23T05:24:14;10.50;;;5.27;;
22894;SDS011;11614;52.494;6.976;2023-05-23T05:26:40;10.27;;;4.77;;
22894;SDS011;11614;52.494;6.976;2023-05-23T05:29:06;7.80;;;4.37;;
22894;SDS011;11614;52.494;6.976;2023-05-23T05:31:32;7.10;;;3.30;;
22894;SDS011;11614;52.494;6.976;2023-05-23T05:33:58;12.73;;;4.97;;
22894;SDS011;11614;52.494;6.976;2023-05-23T05:36:24;8.37;;;4.63;;
22894;SDS011;11614;52.494;6.976;2023-05-23T05:38:50;12.30;;;4.90;;
22894;SDS011;11614;52.494;6.976;2023-05-23T05:41:17;5.37;;;2.60;;
22894;SDS011;11614;52.494;6.976;2023-05-23T05:43:43;11.37;;;4.67;;
22894;SDS011;11614;52.494;6.976;2023-05-23T05:46:09;11.30;;;4.30;;
22894;SDS011;11614;52.494;6.976;2023-05-23T05:48:35;9.03;;;3.43;;
22894;SDS011;11614;52.494;6.976;2023-05-23T05:51:00;8.13;;;4.30;;
22894;SDS011;11614;52.494;6.976;2023-05-23T05:53:27;8.83;;;4.63;;
22894;SDS011;11614;52.494;6.976;2023-05-23T05:55:53;8.17;;;3.70;;
22894;SDS011;11614;52.494;6.976;2023-05-23T05:58:19;7.13;;;3.40;;
22894;SDS011;11614;52.494;6.976;2023-05-23T06:00:46;5.50;;;2.70;;
22894;SDS011;11614;52.494;6.976;2023-05-23T06:03:13;10.73;;;5.03;;
22894;SDS011;11614;52.494;6.976;2023-05-23T06:05:39;6.50;;;2.87;;
22894;SDS011;11614;52.494;6.976;2023-05-23T06:08:05;8.93;;;4.43;;
22894;SDS011;11614;52.494;6.976;2023-05-23T06:10:32;9.67;;;4.67;;
22894;SDS011;11614;52.494;6.976;2023-05-23T06:12:58;9.73;;;3.60;;
22894;SDS011;11614;52.494;6.976;2023-05-23T06:15:24;9.43;;;4.70;;
22894;SDS011;11614;52.494;6.976;2023-05-23T06:17:50;9.70;;;4.33;;
22894;SDS011;11614;52.494;6.976;2023-05-23T06:20:16;7.80;;;4.50;;
22894;SDS011;11614;52.494;6.976;2023-05-23T06:22:42;9.90;;;5.00;;
22894;SDS011;11614;52.494;6.976;2023-05-23T06:25:08;13.00;;;4.77;;
22894;SDS011;11614;52.494;6.976;2023-05-23T06:27:33;10.43;;;4.60;;
22894;SDS011;11614;52.494;6.976;2023-05-23T06:29:59;13.70;;;4.37;;
22894;SDS011;11614;52.494;6.976;2023-05-23T06:32:25;9.70;;;3.27;;
22894;SDS011;11614;52.494;6.976;2023-05-23T06:34:51;7.93;;;3.77;;
22894;SDS011;11614;52.494;6.976;2023-05-23T06:37:17;7.80;;;3.20;;
22894;SDS011;11614;52.494;6.976;2023-05-23T06:39:43;11.27;;;4.10;;
22894;SDS011;11614;52.494;6.976;2023-05-23T06:42:09;10.20;;;4.90;;
22894;SDS011;11614;52.494;6.976;2023-05-23T06:44:35;8.33;;;4.17;;
22894;SDS011;11614;52.494;6.976;2023-05-23T06:47:01;8.10;;;3.80;;
22894;SDS011;11614;52.494;6.976;2023-05-23T06:49:27;9.73;;;4.03;;
22894;SDS011;11614;52.494;6.976;2023-05-23T06:51:53;9.23;;;4.67;;
22894;SDS011;11614;52.494;6.976;2023-05-23T06:54:19;12.70;;;5.53;;
22894;SDS011;11614;52.494;6.976;2023-05-23T06:56:45;13.27;;;4.93;;
22894;SDS011;11614;52.494;6.976;2023-05-23T06:59:11;8.70;;;4.33;;
22894;SDS011;11614;52.494;6.976;2023-05-23T07:01:37;8.17;;;3.80;;
22894;SDS011;11614;52.494;6.976;2023-05-23T07:04:03;9.87;;;4.43;;
22894;SDS011;11614;52.494;6.976;2023-05-23T07:06:29;9.70;;;5.13;;
22894;SDS011;11614;52.494;6.976;2023-05-23T07:08:55;11.83;;;4.87;;
22894;SDS011;11614;52.494;6.976;2023-05-23T07:11:21;9.93;;;5.17;;
22894;SDS011;11614;52.494;6.976;2023-05-23T07:13:46;13.80;;;5.77;;
22894;SDS011;11614;52.494;6.976;2023-05-23T07:16:12;11.03;;;5.37;;
22894;SDS011;11614;52.494;6.976;2023-05-23T07:18:38;12.73;;;5.60;;
22894;SDS011;11614;52.494;6.976;2023-05-23T07:21:03;9.63;;;4.87;;
22894;SDS011;11614;52.494;6.976;2023-05-23T07:23:32;8.80;;;5.27;;
22894;SDS011;11614;52.494;6.976;2023-05-23T07:25:58;11.00;;;4.70;;
22894;SDS011;11614;52.494;6.976;2023-05-23T07:28:24;15.93;;;5.03;;
22894;SDS011;11614;52.494;6.976;2023-05-23T07:30:50;9.67;;;4.23;;
22894;SDS011;11614;52.494;6.976;2023-05-23T07:33:16;11.53;;;4.73;;
22894;SDS011;11614;52.494;6.976;2023-05-23T07:35:42;7.80;;;2.93;;
22894;SDS011;11614;52.494;6.976;2023-05-23T07:38:08;9.17;;;4.20;;
22894;SDS011;11614;52.494;6.976;2023-05-23T07:40:34;5.23;;;2.50;;
22894;SDS011;11614;52.494;6.976;2023-05-23T07:43:02;8.13;;;3.40;;
22894;SDS011;11614;52.494;6.976;2023-05-23T07:45:28;9.73;;;4.47;;
22894;SDS011;11614;52.494;6.976;2023-05-23T07:47:54;6.07;;;3.10;;
22894;SDS011;11614;52.494;6.976;2023-05-23T07:50:20;9.97;;;3.73;;
22894;SDS011;11614;52.494;6.976;2023-05-23T07:52:46;9.10;;;4.87;;
22894;SDS011;11614;52.494;6.976;2023-05-23T07:55:11;3.53;;;2.23;;
22894;SDS011;11614;52.494;6.976;2023-05-23T07:57:37;5.97;;;2.97;;
22894;SDS011;11614;52.494;6.976;2023-05-23T08:00:03;9.40;;;3.70;;
22894;SDS011;11614;52.494;6.976;2023-05-23T08:02:30;9.17;;;3.57;;
22894;SDS011;11614;52.494;6.976;2023-05-23T08:04:56;7.97;;;3.47;;
22894;SDS011;11614;52.494;6.976;2023-05-23T08:07:23;7.33;;;3.67;;
22894;SDS011;11614;52.494;6.976;2023-05-23T08:09:49;7.73;;;2.90;;
22894;SDS011;11614;52.494;6.976;2023-05-23T08:12:14;7.27;;;2.57;;
22894;SDS011;11614;52.494;6.976;2023-05-23T08:14:40;7.73;;;2.57;;
22894;SDS011;11614;52.494;6.976;2023-05-23T08:17:06;10.77;;;3.60;;
22894;SDS011;11614;52.494;6.976;2023-05-23T08:19:32;8.67;;;3.50;;
22894;SDS011;11614;52.494;6.976;2023-05-23T08:21:57;12.77;;;3.80;;
22894;SDS011;11614;52.494;6.976;2023-05-23T08:24:23;8.23;;;3.10;;
22894;SDS011;11614;52.494;6.976;2023-05-23T08:26:49;7.07;;;3.60;;
22894;SDS011;11614;52.494;6.976;2023-05-23T08:29:15;8.57;;;2.90;;
22894;SDS011;11614;52.494;6.976;2023-05-23T08:31:41;12.70;;;4.33;;
22894;SDS011;11614;52.494;6.976;2023-05-23T08:34:06;8.97;;;3.47;;
22894;SDS011;11614;52.494;6.976;2023-05-23T08:36:32;7.17;;;3.07;;
22894;SDS011;11614;52.494;6.976;2023-05-23T08:39:00;6.30;;;2.83;;
22894;SDS011;11614;52.494;6.976;2023-05-23T08:41:26;14.13;;;3.70;;
22894;SDS011;11614;52.494;6.976;2023-05-23T08:43:52;9.53;;;3.17;;
22894;SDS011;11614;52.494;6.976;2023-05-23T08:46:18;11.50;;;4.23;;
22894;SDS011;11614;52.494;6.976;2023-05-23T08:48:45;8.00;;;2.67;;
22894;SDS011;11614;52.494;6.976;2023-05-23T08:51:16;12.27;;;3.27;;
22894;SDS011;11614;52.494;6.976;2023-05-23T08:53:42;11.50;;;4.27;;
22894;SDS011;11614;52.494;6.976;2023-05-23T08:56:14;8.33;;;2.50;;
22894;SDS011;11614;52.494;6.976;2023-05-23T08:58:40;11.47;;;3.50;;
22894;SDS011;11614;52.494;6.976;2023-05-23T09:01:07;9.20;;;3.23;;
22894;SDS011;11614;52.494;6.976;2023-05-23T09:03:36;17.67;;;3.50;;
22894;SDS011;11614;52.494;6.976;2023-05-23T09:06:02;10.70;;;3.37;;
22894;SDS011;11614;52.494;6.976;2023-05-23T09:08:30;11.17;;;3.43;;
22894;SDS011;11614;52.494;6.976;2023-05-23T09:10:56;10.50;;;3.23;;
22894;SDS011;11614;52.494;6.976;2023-05-23T09:13:22;12.37;;;3.57;;
22894;SDS011;11614;52.494;6.976;2023-05-23T09:15:56;15.03;;;5.13;;
22894;SDS011;11614;52.494;6.976;2023-05-23T09:18:33;12.50;;;2.97;;
22894;SDS011;11614;52.494;6.976;2023-05-23T09:21:03;8.97;;;3.03;;
22894;SDS011;11614;52.494;6.976;2023-05-23T09:23:32;9.30;;;3.40;;
22894;SDS011;11614;52.494;6.976;2023-05-23T09:26:03;11.13;;;2.80;;
22894;SDS011;11614;52.494;6.976;2023-05-23T09:28:30;11.10;;;3.70;;
22894;SDS011;11614;52.494;6.976;2023-05-23T09:30:58;8.27;;;3.43;;
22894;SDS011;11614;52.494;6.976;2023-05-23T09:33:41;7.43;;;2.97;;
22894;SDS011;11614;52.494;6.976;2023-05-23T09:36:11;9.47;;;3.33;;
22894;SDS011;11614;52.494;6.976;2023-05-23T09:38:38;5.80;;;2.10;;
22894;SDS011;11614;52.494;6.976;2023-05-23T09:41:05;7.72;;;2.10;;
22894;SDS011;11614;52.494;6.976;2023-05-23T09:43:32;5.32;;;2.47;;
22894;SDS011;11614;52.494;6.976;2023-05-23T09:46:08;6.80;;;1.98;;
22894;SDS011;11614;52.494;6.976;2023-05-23T09:48:35;8.85;;;2.88;;
22894;SDS011;11614;52.494;6.976;2023-05-23T09:51:08;13.10;;;3.60;;
22894;SDS011;11614;52.494;6.976;2023-05-23T09:53:34;10.18;;;3.83;;
22894;SDS011;11614;52.494;6.976;2023-05-23T09:56:01;12.60;;;3.58;;
22894;SDS011;11614;52.494;6.976;2023-05-23T09:58:27;8.43;;;3.10;;
22894;SDS011;11614;52.494;6.976;2023-05-23T10:00:54;9.48;;;3.30;;
22894;SDS011;11614;52.494;6.976;2023-05-23T10:03:23;9.10;;;2.88;;
22894;SDS011;11614;52.494;6.976;2023-05-23T10:05:52;9.80;;;4.13;;
22894;SDS011;11614;52.494;6.976;2023-05-23T10:08:23;8.07;;;3.22;;
22894;SDS011;11614;52.494;6.976;2023-05-23T10:13:24;7.60;;;3.33;;
22894;SDS011;11614;52.494;6.976;2023-05-23T10:15:51;10.43;;;4.07;;
22894;SDS011;11614;52.494;6.976;2023-05-23T10:18:20;4.95;;;3.28;;
22894;SDS011;11614;52.494;6.976;2023-05-23T10:20:48;5.38;;;2.70;;
22894;SDS011;11614;52.494;6.976;2023-05-23T10:23:14;5.55;;;2.97;;
22894;SDS011;11614;52.494;6.976;2023-05-23T10:25:40;9.60;;;3.40;;
22894;SDS011;11614;52.494;6.976;2023-05-23T10:28:06;7.10;;;2.97;;
22894;SDS011;11614;52.494;6.976;2023-05-23T10:30:33;9.68;;;3.60;;
22894;SDS011;11614;52.494;6.976;2023-05-23T10:32:59;8.02;;;3.47;;
22894;SDS011;11614;52.494;6.976;2023-05-23T10:35:31;6.53;;;4.03;;
22894;SDS011;11614;52.494;6.976;2023-05-23T10:40:33;9.63;;;4.18;;
22894;SDS011;11614;52.494;6.976;2023-05-23T10:45:28;6.97;;;3.45;;
22894;SDS011;11614;52.494;6.976;2023-05-23T10:47:54;8.13;;;3.45;;
22894;SDS011;11614;52.494;6.976;2023-05-23T10:50:30;6.90;;;2.58;;
22894;SDS011;11614;52.494;6.976;2023-05-23T10:52:58;5.50;;;2.80;;
22894;SDS011;11614;52.494;6.976;2023-05-23T10:55:25;7.47;;;3.15;;
22894;SDS011;11614;52.494;6.976;2023-05-23T11:00:36;7.90;;;3.75;;
22894;SDS011;11614;52.494;6.976;2023-05-23T11:03:03;5.78;;;2.90;;
22894;SDS011;11614;52.494;6.976;2023-05-23T11:05:33;5.05;;;3.10;;
22894;SDS011;11614;52.494;6.976;2023-05-23T11:08:06;6.47;;;2.72;;
22894;SDS011;11614;52.494;6.976;2023-05-23T11:10:50;7.90;;;3.53;;
22894;SDS011;11614;52.494;6.976;2023-05-23T11:13:16;8.38;;;3.40;;
22894;SDS011;11614;52.494;6.976;2023-05-23T11:15:42;8.48;;;3.10;;
22894;SDS011;11614;52.494;6.976;2023-05-23T11:18:09;5.10;;;2.88;;
22894;SDS011;11614;52.494;6.976;2023-05-23T11:20:44;7.68;;;2.92;;
22894;SDS011;11614;52.494;6.976;2023-05-23T11:23:11;5.65;;;2.70;;
22894;SDS011;11614;52.494;6.976;2023-05-23T11:25:38;4.53;;;2.20;;
22894;SDS011;11614;52.494;6.976;2023-05-23T11:28:05;5.95;;;2.95;;
22894;SDS011;11614;52.494;6.976;2023-05-23T11:30:31;6.70;;;3.00;;
22894;SDS011;11614;52.494;6.976;2023-05-23T11:32:58;9.35;;;3.53;;
22894;SDS011;11614;52.494;6.976;2023-05-23T11:35:23;8.95;;;2.95;;
22894;SDS011;11614;52.494;6.976;2023-05-23T11:37:49;6.43;;;2.63;;
22894;SDS011;11614;52.494;6.976;2023-05-23T11:40:32;6.57;;;2.75;;
22894;SDS011;11614;52.494;6.976;2023-05-23T11:42:59;8.50;;;3.15;;
22894;SDS011;11614;52.494;6.976;2023-05-23T11:45:25;4.80;;;2.28;;
22894;SDS011;11614;52.494;6.976;2023-05-23T11:47:52;8.35;;;3.15;;
22894;SDS011;11614;52.494;6.976;2023-05-23T11:50:18;4.18;;;2.28;;
22894;SDS011;11614;52.494;6.976;2023-05-23T11:52:44;6.88;;;2.45;;
22894;SDS011;11614;52.494;6.976;2023-05-23T11:55:15;6.75;;;2.20;;
22894;SDS011;11614;52.494;6.976;2023-05-23T11:57:42;5.68;;;2.63;;
22894;SDS011;11614;52.494;6.976;2023-05-23T12:00:08;5.15;;;2.75;;
22894;SDS011;11614;52.494;6.976;2023-05-23T12:02:41;8.35;;;2.78;;
22894;SDS011;11614;52.494;6.976;2023-05-23T12:05:11;3.60;;;2.33;;
22894;SDS011;11614;52.494;6.976;2023-05-23T12:07:47;3.97;;;1.75;;
22894;SDS011;11614;52.494;6.976;2023-05-23T12:10:13;8.23;;;3.58;;
22894;SDS011;11614;52.494;6.976;2023-05-23T12:12:46;6.57;;;2.88;;
22894;SDS011;11614;52.494;6.976;2023-05-23T12:15:12;6.40;;;2.88;;
22894;SDS011;11614;52.494;6.976;2023-05-23T12:17:38;4.95;;;2.75;;
22894;SDS011;11614;52.494;6.976;2023-05-23T12:20:09;3.83;;;1.77;;
22894;SDS011;11614;52.494;6.976;2023-05-23T12:22:36;6.45;;;2.92;;
22894;SDS011;11614;52.494;6.976;2023-05-23T12:25:02;10.20;;;3.28;;
22894;SDS011;11614;52.494;6.976;2023-05-23T12:27:29;4.30;;;2.10;;
22894;SDS011;11614;52.494;6.976;2023-05-23T12:30:08;5.30;;;2.75;;
22894;SDS011;11614;52.494;6.976;2023-05-23T12:32:44;4.38;;;1.73;;
22894;SDS011;11614;52.494;6.976;2023-05-23T12:35:11;8.18;;;2.78;;
22894;SDS011;11614;52.494;6.976;2023-05-23T12:37:38;4.20;;;1.98;;
22894;SDS011;11614;52.494;6.976;2023-05-23T12:40:13;7.50;;;3.53;;
22894;SDS011;11614;52.494;6.976;2023-05-23T12:42:49;5.05;;;1.48;;
22894;SDS011;11614;52.494;6.976;2023-05-23T12:45:16;5.97;;;2.13;;
22894;SDS011;11614;52.494;6.976;2023-05-23T12:47:42;4.53;;;1.83;;
22894;SDS011;11614;52.494;6.976;2023-05-23T12:50:08;7.18;;;2.40;;
22894;SDS011;11614;52.494;6.976;2023-05-23T12:52:35;4.55;;;2.40;;
22894;SDS011;11614;52.494;6.976;2023-05-23T12:55:02;5.72;;;2.58;;
22894;SDS011;11614;52.494;6.976;2023-05-23T12:57:28;4.72;;;2.42;;
22894;SDS011;11614;52.494;6.976;2023-05-23T12:59:54;7.40;;;2.95;;
22894;SDS011;11614;52.494;6.976;2023-05-23T13:02:20;7.13;;;3.10;;
22894;SDS011;11614;52.494;6.976;2023-05-23T13:04:47;3.75;;;2.70;;
22894;SDS011;11614;52.494;6.976;2023-05-23T13:07:14;5.57;;;2.55;;
22894;SDS011;11614;52.494;6.976;2023-05-23T13:09:40;5.70;;;1.83;;
22894;SDS011;11614;52.494;6.976;2023-05-23T13:12:06;4.78;;;2.63;;
22894;SDS011;11614;52.494;6.976;2023-05-23T13:14:33;5.03;;;2.20;;
22894;SDS011;11614;52.494;6.976;2023-05-23T13:16:59;4.07;;;1.95;;
22894;SDS011;11614;52.494;6.976;2023-05-23T13:19:25;4.00;;;2.40;;
22894;SDS011;11614;52.494;6.976;2023-05-23T13:21:51;3.65;;;2.38;;
22894;SDS011;11614;52.494;6.976;2023-05-23T13:24:17;5.82;;;2.33;;
22894;SDS011;11614;52.494;6.976;2023-05-23T13:26:43;5.57;;;2.63;;
22894;SDS011;11614;52.494;6.976;2023-05-23T13:29:08;5.32;;;2.30;;
22894;SDS011;11614;52.494;6.976;2023-05-23T13:31:34;3.47;;;2.22;;
22894;SDS011;11614;52.494;6.976;2023-05-23T13:34:00;6.85;;;2.95;;
22894;SDS011;11614;52.494;6.976;2023-05-23T13:36:26;4.57;;;2.00;;
22894;SDS011;11614;52.494;6.976;2023-05-23T13:38:53;6.05;;;2.30;;
22894;SDS011;11614;52.494;6.976;2023-05-23T13:41:19;4.03;;;2.28;;
22894;SDS011;11614;52.494;6.976;2023-05-23T13:43:45;4.75;;;1.90;;
22894;SDS011;11614;52.494;6.976;2023-05-23T13:46:12;5.57;;;2.33;;
22894;SDS011;11614;52.494;6.976;2023-05-23T13:48:38;5.90;;;2.55;;
22894;SDS011;11614;52.494;6.976;2023-05-23T13:51:04;4.40;;;2.50;;
22894;SDS011;11614;52.494;6.976;2023-05-23T13:53:30;4.68;;;2.42;;
22894;SDS011;11614;52.494;6.976;2023-05-23T13:55:56;4.50;;;2.13;;
22894;SDS011;11614;52.494;6.976;2023-05-23T13:58:31;4.47;;;2.13;;
22894;SDS011;11614;52.494;6.976;2023-05-23T14:00:57;8.40;;;2.70;;
22894;SDS011;11614;52.494;6.976;2023-05-23T14:03:23;7.03;;;3.10;;
22894;SDS011;11614;52.494;6.976;2023-05-23T14:05:49;7.55;;;2.42;;
22894;SDS011;11614;52.494;6.976;2023-05-23T14:08:15;4.45;;;2.20;;
22894;SDS011;11614;52.494;6.976;2023-05-23T14:10:41;7.93;;;2.83;;
22894;SDS011;11614;52.494;6.976;2023-05-23T14:13:07;4.85;;;1.85;;
22894;SDS011;11614;52.494;6.976;2023-05-23T14:15:33;4.70;;;2.42;;
22894;SDS011;11614;52.494;6.976;2023-05-23T14:18:02;5.47;;;1.85;;
22894;SDS011;11614;52.494;6.976;2023-05-23T14:20:28;4.47;;;2.22;;
22894;SDS011;11614;52.494;6.976;2023-05-23T14:22:54;4.20;;;1.98;;
22894;SDS011;11614;52.494;6.976;2023-05-23T14:25:20;5.35;;;1.92;;
22894;SDS011;11614;52.494;6.976;2023-05-23T14:27:47;3.42;;;2.20;;
22894;SDS011;11614;52.494;6.976;2023-05-23T14:30:13;4.90;;;1.92;;
22894;SDS011;11614;52.494;6.976;2023-05-23T14:32:39;2.80;;;2.10;;
22894;SDS011;11614;52.494;6.976;2023-05-23T14:35:05;3.25;;;2.05;;
22894;SDS011;11614;52.494;6.976;2023-05-23T14:37:31;5.60;;;2.20;;
22894;SDS011;11614;52.494;6.976;2023-05-23T14:39:57;4.63;;;2.08;;
22894;SDS011;11614;52.494;6.976;2023-05-23T14:42:23;7.72;;;2.50;;
22894;SDS011;11614;52.494;6.976;2023-05-23T14:44:49;3.65;;;1.40;;
22894;SDS011;11614;52.494;6.976;2023-05-23T14:47:15;7.47;;;2.92;;
22894;SDS011;11614;52.494;6.976;2023-05-23T14:49:41;6.32;;;2.83;;
22894;SDS011;11614;52.494;6.976;2023-05-23T14:52:07;6.47;;;2.65;;
22894;SDS011;11614;52.494;6.976;2023-05-23T14:54:33;4.57;;;2.22;;